createdAt,value
2023-01-03T00:04:35.521Z,0.00
2023-01-03T00:09:38.381Z,0.00
2023-01-03T00:14:43.531Z,0.00
2023-01-03T00:19:47.051Z,0.00
2023-01-03T00:24:50.273Z,0.00
2023-01-03T00:29:54.555Z,0.00
2023-01-03T00:35:02.991Z,0.00
2023-01-03T00:40:08.738Z,0.00
2023-01-03T00:45:17.587Z,0.00
2023-01-03T00:50:22.429Z,0.00
2023-01-03T00:55:25.364Z,0.00
2023-01-03T01:00:29.731Z,0.00
2023-01-03T01:05:32.480Z,0.00
2023-01-03T01:10:35.270Z,0.00
2023-01-03T01:15:39.439Z,0.00
2023-01-03T01:20:42.223Z,0.00
2023-01-03T01:25:44.964Z,0.00
2023-01-03T01:30:49.255Z,0.00
2023-01-03T01:35:52.072Z,0.00
2023-01-03T01:40:54.891Z,0.00
2023-01-03T01:45:59.206Z,0.00
2023-01-03T01:51:02.022Z,0.00
2023-01-03T01:56:06.231Z,0.00
2023-01-03T02:01:11.739Z,0.00
2023-01-03T02:06:15.585Z,0.00
2023-01-03T02:11:32.661Z,0.00
2023-01-03T02:16:58.062Z,0.00
2023-01-03T02:22:50.492Z,0.00
2023-01-03T02:28:42.008Z,0.00
2023-01-03T02:33:48.097Z,0.00
2023-01-03T02:38:53.991Z,0.00
2023-01-03T02:43:57.583Z,0.00
2023-01-03T02:49:03.949Z,0.00
2023-01-03T02:54:07.917Z,0.00
2023-01-03T02:59:12.842Z,0.00
2023-01-03T03:04:16.978Z,0.00
2023-01-03T03:09:19.803Z,0.00
2023-01-03T03:14:24.938Z,0.00
2023-01-03T03:19:48.016Z,0.00
2023-01-03T03:24:50.838Z,0.00
2023-01-03T03:29:53.649Z,0.00
2023-01-03T03:34:57.890Z,0.00
2023-01-03T03:40:18.071Z,0.00
2023-01-03T03:45:25.904Z,0.00
2023-01-03T03:50:31.799Z,0.00
2023-01-03T03:55:35.909Z,0.00
2023-01-03T04:00:39.797Z,0.00
2023-01-03T04:05:47.218Z,0.00
2023-01-03T04:10:50.382Z,0.00
2023-01-03T04:15:53.209Z,0.00
2023-01-03T04:20:57.384Z,0.00
2023-01-03T04:26:00.126Z,0.00
2023-01-03T04:31:02.885Z,0.00
2023-01-03T04:36:07.720Z,0.00
2023-01-03T04:41:10.602Z,0.00
2023-01-03T04:46:13.426Z,0.00
2023-01-03T04:51:17.568Z,0.00
2023-01-03T04:56:25.081Z,0.00
2023-01-03T05:01:27.936Z,0.00
2023-01-03T05:06:33.548Z,0.00
2023-01-03T05:11:36.426Z,0.00
2023-01-03T05:16:39.249Z,0.00
2023-01-03T05:22:00.806Z,0.00
2023-01-03T05:27:04.322Z,0.00
2023-01-03T05:32:07.188Z,0.00
2023-01-03T05:37:11.507Z,0.00
2023-01-03T05:42:14.243Z,0.00
2023-01-03T05:47:16.980Z,0.00
2023-01-03T05:52:21.378Z,0.00
2023-01-03T05:57:24.243Z,0.00
2023-01-03T06:02:27.004Z,0.00
2023-01-03T06:07:33.917Z,0.00
2023-01-03T06:12:37.725Z,0.00
2023-01-03T06:17:58.309Z,0.00
2023-01-03T06:23:02.535Z,0.00
2023-01-03T06:28:05.556Z,0.00
2023-01-03T06:33:08.387Z,0.00
2023-01-03T06:38:12.497Z,0.00
2023-01-03T06:43:15.334Z,0.00
2023-01-03T06:48:35.549Z,0.00
2023-01-03T06:53:40.409Z,0.00
2023-01-03T06:58:43.114Z,0.00
2023-01-03T07:03:45.880Z,0.00
2023-01-03T07:08:50.074Z,0.00
2023-01-03T07:14:03.343Z,0.00
2023-01-03T07:19:06.892Z,0.00
2023-01-03T07:24:12.767Z,0.00
2023-01-03T07:29:15.559Z,0.00
2023-01-03T07:34:19.082Z,0.00
2023-01-03T07:39:24.211Z,0.00
2023-01-03T07:44:27.295Z,0.00
2023-01-03T07:49:30.195Z,0.00
2023-01-03T07:54:34.325Z,0.00
2023-01-03T07:59:37.181Z,0.00
2023-01-03T08:04:40.042Z,0.00
2023-01-03T08:10:01.507Z,0.00
2023-01-03T08:15:04.947Z,0.00
2023-01-03T08:20:08.908Z,2.00
2023-01-03T08:25:13.188Z,3.80
2023-01-03T08:30:15.973Z,2.00
2023-01-03T08:35:18.915Z,1.20
2023-01-03T08:40:23.395Z,1.00
2023-01-03T08:45:26.566Z,1.00
2023-01-03T08:50:30.416Z,1.00
2023-01-03T08:55:34.658Z,1.00
2023-01-03T09:00:37.620Z,1.00
2023-01-03T09:05:40.417Z,0.80
2023-01-03T09:10:47.599Z,0.00
2023-01-03T09:15:50.698Z,0.80
2023-01-03T09:20:53.489Z,0.00
2023-01-03T09:25:57.597Z,0.00
2023-01-03T09:31:00.478Z,0.20
2023-01-03T09:36:03.316Z,0.00
2023-01-03T09:41:08.887Z,1.00
2023-01-03T09:46:24.896Z,0.00
2023-01-03T09:51:45.908Z,1.00
2023-01-03T09:57:07.438Z,0.00
2023-01-03T10:02:38.168Z,0.00
2023-01-03T10:07:50.588Z,0.00
2023-01-03T10:12:59.962Z,0.00
2023-01-03T10:18:08.340Z,0.00
2023-01-03T10:23:11.222Z,0.00
2023-01-03T10:28:18.324Z,0.00
2023-01-03T10:33:29.627Z,12.80
2023-01-03T10:38:36.819Z,20.25
2023-01-03T10:43:46.866Z,16.60
2023-01-03T10:49:26.027Z,23.00
2023-01-03T10:54:14.243Z,26.00
2023-01-03T10:59:22.623Z,27.00
2023-01-03T11:04:25.402Z,23.25
2023-01-03T11:09:28.936Z,22.00
2023-01-03T11:14:33.178Z,23.00
2023-01-03T11:19:35.994Z,19.40
2023-01-03T11:24:47.888Z,16.20
2023-01-03T11:30:03.653Z,13.00
2023-01-03T11:35:24.485Z,10.80
2023-01-03T11:40:31.362Z,7.00
2023-01-03T11:46:00.632Z,6.60
2023-01-03T11:51:09.691Z,5.00
2023-01-03T11:56:19.754Z,5.20
2023-01-03T12:01:35.436Z,1.00
2023-01-03T12:06:44.396Z,1.00
2023-01-03T12:12:07.545Z,0.80
2023-01-03T12:17:14.339Z,1.00
2023-01-03T12:22:19.209Z,0.80
2023-01-03T12:27:25.555Z,0.80
2023-01-03T12:32:34.880Z,0.60
2023-01-03T12:37:37.780Z,0.00
2023-01-03T12:42:42.139Z,0.00
2023-01-03T12:47:50.278Z,1.00
2023-01-03T12:52:56.531Z,1.00
2023-01-03T12:58:10.413Z,0.00
2023-01-03T13:03:19.498Z,1.00
2023-01-03T13:08:30.012Z,1.00
2023-01-03T13:13:32.882Z,0.00
2023-01-03T13:18:37.628Z,0.40
2023-01-03T13:23:58.228Z,1.00
2023-01-03T13:29:42.156Z,5.00
2023-01-03T13:34:46.290Z,6.80
2023-01-03T13:40:11.431Z,9.00
2023-01-03T13:45:49.046Z,11.00
2023-01-03T13:51:07.625Z,14.60
2023-01-03T13:56:29.201Z,18.75
2023-01-03T14:01:50.199Z,18.50
2023-01-03T14:07:01.365Z,17.00
2023-01-03T14:12:38.105Z,1.00
2023-01-03T14:17:44.151Z,3.80
2023-01-03T14:22:49.397Z,7.00
2023-01-03T14:27:52.202Z,9.00
2023-01-03T14:32:55.010Z,6.80
2023-01-03T14:38:04.715Z,5.20
2023-01-03T14:43:17.688Z,6.00
2023-01-03T14:48:24.370Z,6.00
2023-01-03T14:53:28.484Z,5.00
2023-01-03T14:58:33.934Z,5.00
2023-01-03T15:03:38.000Z,5.00
2023-01-03T15:08:44.329Z,5.00
2023-01-03T15:13:53.913Z,5.00
2023-01-03T15:19:02.097Z,4.60
2023-01-03T15:24:06.856Z,4.60
2023-01-03T15:29:14.153Z,3.00
2023-01-03T15:34:17.814Z,3.00
2023-01-03T15:39:23.260Z,4.20
2023-01-03T15:44:27.438Z,3.00
2023-01-03T15:49:30.221Z,2.00
2023-01-03T15:54:34.756Z,2.80
2023-01-03T15:59:43.174Z,3.00
2023-01-03T16:04:46.477Z,2.00
2023-01-03T16:09:50.779Z,2.00
2023-01-03T16:14:54.274Z,2.00
2023-01-03T16:19:57.836Z,2.40
2023-01-03T16:25:02.015Z,3.00
2023-01-03T16:30:05.186Z,2.00
2023-01-03T16:35:13.168Z,2.00
2023-01-03T16:40:18.109Z,2.00
2023-01-03T16:45:20.995Z,2.40
2023-01-03T16:50:23.889Z,2.00
2023-01-03T16:55:29.758Z,2.00
2023-01-03T17:00:33.674Z,2.00
2023-01-03T17:05:37.291Z,2.00
2023-01-03T17:10:41.663Z,2.00
2023-01-03T17:15:44.574Z,2.00
2023-01-03T17:20:47.577Z,2.40
2023-01-03T17:25:51.757Z,1.80
2023-01-03T17:30:56.590Z,2.00
2023-01-03T17:35:59.527Z,1.20
2023-01-03T17:41:03.706Z,1.60
2023-01-03T17:46:26.934Z,1.80
2023-01-03T17:51:30.048Z,2.00
2023-01-03T17:56:34.421Z,2.20
2023-01-03T18:01:37.465Z,2.00
2023-01-03T18:06:40.348Z,1.80
2023-01-03T18:11:44.510Z,1.80
2023-01-03T18:16:53.140Z,2.00
2023-01-03T18:21:58.867Z,2.00
2023-01-03T18:27:03.010Z,2.00
2023-01-03T18:32:11.486Z,1.20
2023-01-03T18:37:14.376Z,1.60
2023-01-03T18:42:36.055Z,1.00
2023-01-03T18:47:38.823Z,1.00
2023-01-03T18:52:41.796Z,2.00
2023-01-03T18:57:46.062Z,1.00
2023-01-03T19:02:49.293Z,1.00
2023-01-03T19:07:52.783Z,1.00
2023-01-03T19:12:57.600Z,1.00
2023-01-03T19:18:01.326Z,2.00
2023-01-03T19:23:04.189Z,1.40
2023-01-03T19:28:10.857Z,1.60
2023-01-03T19:33:14.385Z,1.00
2023-01-03T19:38:17.234Z,2.00
2023-01-03T19:43:22.330Z,1.20
2023-01-03T19:48:26.296Z,1.60
2023-01-03T19:53:29.051Z,1.00
2023-01-03T19:58:34.457Z,1.00
2023-01-03T20:03:39.663Z,1.00
2023-01-03T20:08:42.585Z,1.80
2023-01-03T20:13:47.155Z,2.00
2023-01-03T20:18:50.006Z,1.40
2023-01-03T20:23:54.098Z,1.20
2023-01-03T20:28:58.763Z,1.40
2023-01-03T20:34:04.624Z,1.00
2023-01-03T20:39:07.610Z,1.00
2023-01-03T20:44:12.036Z,1.60
2023-01-03T20:49:16.655Z,1.00
2023-01-03T20:54:19.517Z,1.20
2023-01-03T20:59:24.373Z,1.00
2023-01-03T21:04:27.228Z,1.00
2023-01-03T21:09:30.381Z,2.00
2023-01-03T21:14:34.504Z,1.00
2023-01-03T21:19:39.095Z,1.40
2023-01-03T21:24:45.834Z,2.00
2023-01-03T21:29:50.353Z,1.00
2023-01-03T21:34:53.166Z,1.00
2023-01-03T21:39:55.963Z,1.00
2023-01-03T21:45:00.124Z,1.00
2023-01-03T21:50:02.955Z,1.00
2023-01-03T21:55:06.548Z,1.00
2023-01-03T22:00:12.463Z,1.00
2023-01-03T22:05:15.495Z,1.00
2023-01-03T22:10:18.973Z,1.00
2023-01-03T22:15:23.267Z,1.00
2023-01-03T22:20:26.909Z,0.40
2023-01-03T22:25:29.761Z,1.00
2023-01-03T22:30:33.885Z,1.00
2023-01-03T22:35:36.795Z,1.40
2023-01-03T22:40:39.729Z,0.60
2023-01-03T22:45:43.940Z,1.00
2023-01-03T22:50:46.748Z,1.00
2023-01-03T22:55:49.664Z,0.60
2023-01-03T23:00:53.894Z,0.40
2023-01-03T23:05:58.166Z,1.00
2023-01-03T23:11:19.752Z,0.00
2023-01-03T23:16:24.026Z,0.40
2023-01-03T23:21:26.870Z,1.00
2023-01-03T23:26:29.685Z,0.00
2023-01-03T23:31:33.853Z,1.00
2023-01-03T23:36:36.712Z,1.00
2023-01-03T23:41:39.904Z,1.00
2023-01-03T23:46:44.056Z,1.00
2023-01-03T23:51:46.833Z,0.00
2023-01-03T23:56:49.625Z,0.00
